Overview Statistics Trail Chart Weather Telemetry Raw packets
 

This is the latest recevied weather packets stored in our database for station/object N1JOV-7. If no packets are shown the sender has not sent any weather packets the latest 10 day(s).

<< 1 2 3 4 >>
Time Temp. Humidity Pressure Rain* Wind** Luminosity Snow
1788632462 21.11° C 67% 1011.2 hPa 0 mm - - -
1788631861 23.33° C 63% 1011 hPa 0 mm - - -
1788631261 22.22° C 63% 1011 hPa 0 mm - - -
1788630661 22.22° C 64% 1011.1 hPa 0 mm - - -
1788630061 22.22° C 65% 1011.2 hPa 0 mm - - -
1788629461 22.22° C 64% 1011 hPa 0 mm - - -
1788628861 22.78° C 63% 1011.2 hPa 0 mm - - -
1788628261 21.67° C 65% 1011.4 hPa 0 mm - - -
1788627662 21.67° C 66% 1011.5 hPa 0 mm - - -
1788627062 21.11° C 68% 1011.6 hPa 0 mm - - -
1788626462 22.78° C 65% 1011.4 hPa 0 mm - - -
1788625862 22.22° C 65% 1011.4 hPa 0 mm - - -
1788625262 22.22° C 66% 1011.3 hPa 0 mm - - -
1788624661 21.11° C 69% 1011.3 hPa 0 mm - - -
1788624061 21.11° C 71% 1011.3 hPa 0 mm - - -
1788623461 21.67° C 73% 1011.3 hPa 0 mm - - -
1788622861 20° C 77% 1011.2 hPa 0 mm - - -
1788622261 21.11° C 77% 1011.2 hPa 0 mm - - -
1788621661 20° C 79% 1011.2 hPa 0 mm - - -
1788621062 19.44° C 81% 1011.1 hPa 0 mm - - -
1788620462 20° C 80% 1011 hPa 0 mm - - -
1788619862 19.44° C 80% 1011.2 hPa 0 mm - - -
1788619262 18.89° C 82% 1011.1 hPa 0 mm - - -
1788618662 18.89° C 83% 1010.8 hPa 0 mm - - -
1788618062 20° C 78% 1010.7 hPa 0 mm - - -

* Rain latest hour (hover to see other rain measurements)
** Current wind speed in m/s (hover to see current wind gust speed)